Time;durP1;ratioP1;P1;durP2;ratioP2;P2;SDS_P1;SDS_P2;PMS_P1;PMS_P2;Temp;Humidity;BMP_temperature;BMP_pressure;BME280_temperature;BME280_humidity;BME280_pressure;Samples;Min_cycle;Max_cycle;Signal;HPM_P1;HPM_P2
2023/04/01 00:05:13;;;;;;;11.68;6.95;;;14.70;83.00;;;;;;10824510;33;20420;-75
2023/04/01 00:11:16;;;;;;;6.72;5.37;;;14.60;83.00;;;;;;10824330;33;20038;-75
2023/04/01 00:17:18;;;;;;;7.05;5.50;;;14.60;83.00;;;;;;10824402;33;20050;-75
2023/04/01 00:23:21;;;;;;;8.52;6.40;;;14.20;83.10;;;;;;10824308;33;20342;-75
2023/04/01 00:29:28;;;;;;;7.03;4.78;;;13.80;83.50;;;;;;10819949;33;20032;-75
2023/04/01 00:35:30;;;;;;;9.45;7.30;;;13.80;83.70;;;;;;10820597;33;20372;-75
2023/04/01 00:41:32;;;;;;;8.45;6.03;;;13.70;84.00;;;;;;10824593;33;20047;-75
2023/04/01 00:47:34;;;;;;;8.38;6.32;;;14.10;84.00;;;;;;10824337;33;20052;-75
2023/04/01 00:53:41;;;;;;;8.68;6.00;;;14.10;83.60;;;;;;10822141;33;20070;-75
2023/04/01 00:59:47;;;;;;;11.27;9.23;;;14.10;83.70;;;;;;10823940;33;20016;-75
2023/04/01 01:06:07;;;;;;;10.55;8.80;;;14.30;83.40;;;;;;10823205;33;20050;-75
2023/04/01 01:12:50;;;;;;;15.82;12.20;;;14.40;83.30;;;;;;10824365;33;20047;-75
2023/04/01 01:18:52;;;;;;;17.10;15.27;;;14.50;83.70;;;;;;10854928;32;20050;-74
2023/04/01 01:25:16;;;;;;;15.68;12.05;;;14.50;83.60;;;;;;10856075;32;20059;-74
2023/04/01 01:31:45;;;;;;;8.43;6.35;;;14.40;83.30;;;;;;10868884;32;20027;-75
2023/04/01 01:37:52;;;;;;;12.48;10.15;;;14.50;83.10;;;;;;10855601;32;20444;-75
2023/04/01 01:43:57;;;;;;;11.60;7.50;;;14.40;83.30;;;;;;10867684;32;20073;-75
2023/04/01 01:50:01;;;;;;;6.80;5.30;;;14.40;83.20;;;;;;10850745;32;20533;-75
2023/04/01 01:56:04;;;;;;;7.87;5.15;;;14.30;83.10;;;;;;10829396;33;20016;-75
2023/04/01 02:02:09;;;;;;;10.40;8.38;;;14.10;83.30;;;;;;10826461;33;20020;-74
2023/04/01 02:08:44;;;;;;;10.10;7.07;;;14.00;83.40;;;;;;10827417;33;20016;-75
2023/04/01 02:14:57;;;;;;;17.90;15.05;;;14.10;83.30;;;;;;10714436;33;20017;-75
2023/04/01 02:21:00;;;;;;;9.65;6.47;;;14.10;83.20;;;;;;10713246;33;20026;-74
2023/04/01 02:27:03;;;;;;;8.55;6.75;;;13.90;83.00;;;;;;10702734;33;20043;-74
2023/04/01 02:33:07;;;;;;;10.95;7.00;;;13.90;83.40;;;;;;10702181;33;20032;-74
2023/04/01 02:39:09;;;;;;;14.27;6.70;;;13.70;83.20;;;;;;10700084;33;20025;-74
2023/04/01 02:45:12;;;;;;;15.50;11.00;;;13.60;83.50;;;;;;10713725;33;20043;-74
2023/04/01 02:51:14;;;;;;;9.27;6.07;;;13.40;83.50;;;;;;10792381;33;20078;-74
2023/04/01 02:57:16;;;;;;;10.30;7.68;;;13.20;83.70;;;;;;10827157;33;20333;-74
2023/04/01 03:03:18;;;;;;;8.10;5.95;;;13.20;83.90;;;;;;10825844;33;20012;-74
2023/04/01 03:09:21;;;;;;;11.55;7.10;;;13.20;83.50;;;;;;10826300;33;20097;-75
2023/04/01 03:15:23;;;;;;;8.60;6.18;;;13.00;83.70;;;;;;10826025;33;20295;-75
2023/04/01 03:21:25;;;;;;;13.57;7.62;;;13.00;83.80;;;;;;10825569;33;20314;-75
2023/04/01 03:27:27;;;;;;;13.05;7.87;;;12.80;83.80;;;;;;10824799;33;20070;-75
2023/04/01 03:33:30;;;;;;;10.60;7.12;;;12.90;83.80;;;;;;10823081;33;20028;-75
2023/04/01 03:39:32;;;;;;;9.55;7.05;;;12.80;83.40;;;;;;10824085;32;20393;-75
2023/04/01 03:45:35;;;;;;;18.48;15.52;;;12.60;83.80;;;;;;10824747;33;20035;-75
2023/04/01 03:51:42;;;;;;;15.43;10.45;;;12.60;84.20;;;;;;10825020;33;20039;-75
2023/04/01 03:57:44;;;;;;;14.45;9.93;;;12.80;84.10;;;;;;10824180;33;20059;-75
2023/04/01 04:03:49;;;;;;;10.65;7.40;;;12.70;83.80;;;;;;10824095;33;20007;-75
2023/04/01 04:09:51;;;;;;;11.52;8.77;;;12.80;83.60;;;;;;10825228;33;20024;-75
2023/04/01 04:15:53;;;;;;;10.15;8.68;;;12.70;83.40;;;;;;10825131;33;20016;-75
2023/04/01 04:21:55;;;;;;;9.57;6.35;;;12.80;83.30;;;;;;10824909;33;20408;-75
2023/04/01 04:27:58;;;;;;;7.70;4.85;;;12.70;83.10;;;;;;10823812;33;20375;-75
2023/04/01 04:34:01;;;;;;;7.55;5.25;;;12.50;82.90;;;;;;10824673;33;20023;-74
2023/04/01 04:40:05;;;;;;;16.67;9.90;;;12.20;83.40;;;;;;10823135;33;20412;-74
2023/04/01 04:46:10;;;;;;;10.07;7.93;;;12.30;83.50;;;;;;10823522;33;20434;-74
2023/04/01 04:52:13;;;;;;;9.20;6.03;;;12.50;83.30;;;;;;10826879;32;20011;-74
2023/04/01 04:58:16;;;;;;;7.90;5.47;;;12.50;82.90;;;;;;10830609;33;20385;-74
2023/04/01 05:04:18;;;;;;;9.55;7.25;;;12.30;83.00;;;;;;10829147;33;20191;-74
2023/04/01 05:10:20;;;;;;;8.23;6.57;;;12.20;83.00;;;;;;10827532;33;20028;-75
2023/04/01 05:16:22;;;;;;;13.10;9.63;;;12.10;83.20;;;;;;10829998;33;20282;-74
2023/04/01 05:22:25;;;;;;;9.95;7.45;;;12.30;83.10;;;;;;10827988;33;20066;-75
2023/04/01 05:28:27;;;;;;;8.80;5.97;;;12.30;82.60;;;;;;10829203;33;20046;-74
2023/04/01 05:34:29;;;;;;;5.57;4.40;;;12.20;82.60;;;;;;10827649;33;20050;-75
2023/04/01 05:40:32;;;;;;;6.95;4.85;;;12.00;82.60;;;;;;10828525;33;20038;-75
2023/04/01 05:46:34;;;;;;;13.15;8.75;;;11.70;83.00;;;;;;10828688;33;20178;-75
2023/04/01 05:52:40;;;;;;;22.55;18.15;;;11.70;83.50;;;;;;10827752;33;20047;-76
2023/04/01 05:58:42;;;;;;;47.78;38.40;;;11.80;83.60;;;;;;10828156;33;20024;-75
2023/04/01 06:04:45;;;;;;;23.15;16.27;;;12.00;83.10;;;;;;10827980;32;20024;-75
2023/04/01 06:11:18;;;;;;;19.30;15.10;;;12.20;83.00;;;;;;10828593;33;20020;-75
2023/04/01 06:18:02;;;;;;;23.92;19.15;;;12.00;82.90;;;;;;10827218;33;20020;-75
2023/04/01 06:24:35;;;;;;;19.40;14.73;;;11.80;83.30;;;;;;10827498;32;20086;-75
2023/04/01 06:30:40;;;;;;;23.25;18.62;;;11.80;83.30;;;;;;10826786;32;20032;-75
2023/04/01 06:37:02;;;;;;;13.88;11.15;;;11.90;82.90;;;;;;10826396;33;20025;-75
2023/04/01 06:43:11;;;;;;;15.63;12.15;;;12.00;83.20;;;;;;10826213;33;20048;-75
2023/04/01 06:49:35;;;;;;;13.15;9.30;;;12.20;83.20;;;;;;10824861;32;20408;-76
2023/04/01 06:55:53;;;;;;;14.40;10.45;;;12.20;83.30;;;;;;10827219;33;20019;-76
2023/04/01 07:02:20;;;;;;;11.52;9.07;;;12.40;83.40;;;;;;10825907;33;20024;-76
2023/04/01 07:08:28;;;;;;;12.52;10.50;;;12.50;83.40;;;;;;10825650;33;20028;-76
2023/04/01 07:14:37;;;;;;;17.95;13.77;;;12.70;83.30;;;;;;10820499;32;20055;-76
2023/04/01 07:20:39;;;;;;;9.60;6.97;;;12.90;83.70;;;;;;10826064;33;20057;-76
2023/04/01 07:26:41;;;;;;;8.85;6.32;;;13.10;83.70;;;;;;10822931;33;20024;-76
2023/04/01 07:33:01;;;;;;;8.60;6.45;;;13.20;83.60;;;;;;10825257;33;20023;-76
2023/04/01 07:39:30;;;;;;;10.85;7.62;;;13.20;83.60;;;;;;10825768;33;20024;-76
2023/04/01 07:45:42;;;;;;;;;;;13.30;83.30;;;;;;10824763;33;20349;-77
2023/04/01 07:52:01;;;;;;;7.65;4.93;;;13.20;83.00;;;;;;10826981;27;19935;-76
2023/04/01 07:58:23;;;;;;;10.95;8.80;;;13.40;83.30;;;;;;10825407;33;20330;-76
2023/04/01 08:04:44;;;;;;;7.45;5.03;;;13.60;83.30;;;;;;10806357;33;20082;-76
2023/04/01 08:11:11;;;;;;;7.70;5.62;;;13.70;83.50;;;;;;10825477;33;20028;-76
2023/04/01 08:17:50;;;;;;;12.57;9.52;;;13.80;82.90;;;;;;10823492;33;20055;-75
2023/04/01 08:23:56;;;;;;;15.32;12.02;;;14.00;83.10;;;;;;10824711;32;20012;-76
2023/04/01 08:30:19;;;;;;;12.18;8.50;;;14.10;83.30;;;;;;10822267;33;20032;-76
2023/04/01 08:36:28;;;;;;;18.00;15.27;;;14.20;83.30;;;;;;10789970;33;20032;-76
2023/04/01 08:42:49;;;;;;;;;;;14.30;83.00;;;;;;10795460;33;20025;-75
2023/04/01 08:49:23;;;;;;;10.35;5.82;;;14.40;82.90;;;;;;10793426;33;20294;-76
2023/04/01 08:55:56;;;;;;;9.50;6.00;;;14.50;83.00;;;;;;10789084;33;20421;-77
2023/04/01 09:02:17;;;;;;;6.32;4.45;;;14.50;82.50;;;;;;10793059;33;20389;-77
2023/04/01 09:08:47;;;;;;;8.88;5.82;;;14.70;82.60;;;;;;10791654;33;20024;-77
2023/04/01 09:15:15;;;;;;;6.97;4.70;;;14.70;82.90;;;;;;10791423;33;20032;-77
2023/04/01 09:21:39;;;;;;;5.60;3.03;;;14.70;82.40;;;;;;10788464;33;20032;-77
2023/04/01 09:28:09;;;;;;;5.28;3.75;;;14.90;82.20;;;;;;10788381;33;20028;-77
2023/04/01 09:34:27;;;;;;;4.10;2.85;;;14.90;82.10;;;;;;10787450;33;20039;-77
2023/04/01 09:40:30;;;;;;;8.13;3.60;;;15.20;81.50;;;;;;10789859;33;20029;-77
2023/04/01 09:46:49;;;;;;;3.55;2.40;;;15.30;80.80;;;;;;10791327;33;20043;-77
2023/04/01 09:52:57;;;;;;;2.85;2.20;;;15.40;81.20;;;;;;10791249;33;20074;-76
2023/04/01 09:59:19;;;;;;;6.43;4.55;;;15.50;80.50;;;;;;10791860;33;20028;-76
2023/04/01 10:05:50;;;;;;;4.78;3.37;;;15.70;80.60;;;;;;10791183;33;20020;-77
2023/04/01 10:11:58;;;;;;;6.37;4.28;;;15.80;78.20;;;;;;10788918;33;20417;-76
2023/04/01 10:18:29;;;;;;;2.95;2.42;;;15.80;77.60;;;;;;10787695;33;20059;-76
2023/04/01 10:24:46;;;;;;;5.03;3.22;;;16.00;77.80;;;;;;10790100;33;20020;-77
2023/04/01 10:31:12;;;;;;;3.60;2.50;;;16.20;77.70;;;;;;10788212;33;20032;-77
2023/04/01 10:37:32;;;;;;;2.97;2.00;;;16.30;77.40;;;;;;10785295;33;20032;-78
2023/04/01 10:43:38;;;;;;;7.30;3.58;;;16.50;77.70;;;;;;10789825;33;20086;-78
2023/04/01 10:50:05;;;;;;;3.08;2.45;;;16.70;77.70;;;;;;10786492;33;20059;-77
2023/04/01 10:56:10;;;;;;;4.80;2.05;;;16.80;77.40;;;;;;10787952;33;20028;-77
2023/04/01 11:02:50;;;;;;;3.30;2.17;;;17.00;77.10;;;;;;10791036;33;20322;-76
2023/04/01 11:09:31;;;;;;;7.70;5.45;;;17.40;76.40;;;;;;10786605;33;20467;-76
2023/04/01 11:15:45;;;;;;;5.75;2.72;;;17.70;74.80;;;;;;10785047;32;20336;-76
2023/04/01 11:22:09;;;;;;;4.43;2.70;;;17.80;74.60;;;;;;10787453;33;20055;-77
2023/04/01 11:28:23;;;;;;;5.43;4.10;;;18.30;72.10;;;;;;10788282;33;20016;-77
2023/04/01 11:35:14;;;;;;;4.20;2.55;;;18.50;71.90;;;;;;10789542;33;20064;-76
2023/04/01 11:42:07;;;;;;;5.85;3.12;;;18.80;70.50;;;;;;10827141;32;20036;-77
2023/04/01 11:48:33;;;;;;;4.00;2.30;;;19.00;69.00;;;;;;10711791;33;20102;-76
2023/04/01 11:54:55;;;;;;;4.45;2.40;;;19.20;68.40;;;;;;10716292;33;20076;-76
2023/04/01 12:01:06;;;;;;;5.47;3.40;;;19.40;68.60;;;;;;10699541;33;20040;-76
2023/04/01 12:07:45;;;;;;;9.13;5.18;;;19.60;68.00;;;;;;10716969;33;20025;-76
2023/04/01 12:13:50;;;;;;;4.55;2.83;;;19.60;67.20;;;;;;10704910;33;20067;-76
2023/04/01 12:20:10;;;;;;;4.20;2.97;;;19.80;66.90;;;;;;10692644;33;20086;-77
2023/04/01 12:26:54;;;;;;;7.50;3.35;;;19.90;66.30;;;;;;10788019;33;20066;-75
2023/04/01 12:33:03;;;;;;;4.05;2.97;;;20.10;64.80;;;;;;10785185;33;20028;-76
2023/04/01 12:39:59;;;;;;;6.25;3.15;;;20.00;64.40;;;;;;10786070;33;20032;-76
2023/04/01 12:46:32;;;;;;;8.25;3.30;;;20.10;64.00;;;;;;10674532;33;20034;-75
2023/04/01 12:53:11;;;;;;;6.47;4.28;;;20.30;62.90;;;;;;10674437;33;20061;-76
2023/04/01 12:59:37;;;;;;;6.45;3.17;;;20.20;61.90;;;;;;10670911;33;20025;-76
2023/04/01 13:06:09;;;;;;;22.15;17.83;;;20.30;61.40;;;;;;10673687;33;20056;-76
2023/04/01 13:12:24;;;;;;;17.65;14.52;;;20.50;64.30;;;;;;10675351;33;20052;-77
2023/04/01 13:18:57;;;;;;;18.40;14.65;;;20.30;65.20;;;;;;10740171;33;20086;-77
2023/04/01 13:25:27;;;;;;;15.73;8.93;;;20.00;67.00;;;;;;10791946;33;20021;-76
2023/04/01 13:32:00;;;;;;;19.05;12.05;;;20.00;66.70;;;;;;10679679;32;20037;-77
2023/04/01 13:38:17;;;;;;;14.48;11.43;;;20.00;67.50;;;;;;10676000;32;20033;-77
2023/04/01 13:44:41;;;;;;;15.32;11.50;;;20.20;67.20;;;;;;10663262;32;20413;-77
2023/04/01 13:51:06;;;;;;;10.07;5.45;;;20.00;66.50;;;;;;10675614;33;20064;-76
2023/04/01 13:57:39;;;;;;;13.95;8.57;;;19.90;67.10;;;;;;10678733;33;20064;-76
2023/04/01 14:03:47;;;;;;;10.13;8.15;;;20.30;66.30;;;;;;10678386;32;20029;-76
2023/04/01 14:10:32;;;;;;;9.13;7.07;;;20.70;65.50;;;;;;10820888;33;20050;-76
2023/04/01 14:16:55;;;;;;;10.63;7.22;;;20.80;66.10;;;;;;10828715;33;20381;-76
2023/04/01 14:23:15;;;;;;;9.02;6.22;;;20.90;65.00;;;;;;10827758;32;20047;-75
2023/04/01 14:29:18;;;;;;;9.45;6.43;;;21.10;64.40;;;;;;10828151;33;20024;-75
2023/04/01 14:35:43;;;;;;;9.98;5.80;;;21.40;63.80;;;;;;10824474;33;20039;-75
2023/04/01 14:41:58;;;;;;;13.82;9.38;;;21.60;63.50;;;;;;10826113;33;20173;-75
2023/04/01 14:48:35;;;;;;;10.60;6.72;;;21.80;62.60;;;;;;10933063;32;20454;-75
2023/04/01 14:54:41;;;;;;;11.07;8.20;;;21.90;62.10;;;;;;10980123;32;20197;-75
2023/04/01 15:00:55;;;;;;;14.18;7.85;;;22.00;62.50;;;;;;10869838;32;20346;-75
2023/04/01 15:07:24;;;;;;;7.03;4.68;;;22.00;63.50;;;;;;10776424;32;20028;-72
2023/04/01 15:13:29;;;;;;;10.10;6.00;;;22.00;62.50;;;;;;10789200;33;20063;-73
2023/04/01 15:20:08;;;;;;;8.65;4.70;;;22.00;63.80;;;;;;10785207;33;20395;-75
2023/04/01 15:26:40;;;;;;;6.87;4.20;;;22.00;63.70;;;;;;10784680;33;20025;-74
2023/04/01 15:33:01;;;;;;;9.52;4.12;;;22.00;62.70;;;;;;10787081;33;20043;-74
2023/04/01 15:39:15;;;;;;;7.43;4.05;;;22.30;61.70;;;;;;10786775;33;20032;-75
2023/04/01 15:45:35;;;;;;;10.57;7.45;;;22.50;61.30;;;;;;10786629;33;20055;-75
2023/04/01 15:51:56;;;;;;;16.67;11.20;;;22.70;64.90;;;;;;10583826;27;7436287;-75
2023/04/01 15:58:27;;;;;;;9.52;6.37;;;22.40;70.40;;;;;;10822239;32;20032;-73
2023/04/01 16:04:50;;;;;;;15.48;9.27;;;22.60;69.30;;;;;;10821636;33;20028;-73
2023/04/01 16:11:15;;;;;;;14.60;5.85;;;23.30;67.70;;;;;;10824032;33;20039;-74
2023/04/01 16:17:50;;;;;;;14.35;9.75;;;24.00;65.60;;;;;;10809862;33;20292;-74
2023/04/01 16:24:04;;;;;;;12.98;7.93;;;24.50;64.50;;;;;;10710410;32;20041;-74
2023/04/01 16:30:38;;;;;;;13.40;9.40;;;24.70;62.90;;;;;;10710531;32;20033;-74
2023/04/01 16:36:48;;;;;;;16.35;9.82;;;24.60;64.30;;;;;;10709224;32;20041;-74
2023/04/01 16:43:09;;;;;;;9.23;6.18;;;24.50;65.00;;;;;;10710637;32;20044;-74
2023/04/01 16:49:11;;;;;;;13.20;8.50;;;24.70;64.60;;;;;;10699496;33;20055;-73
2023/04/01 16:55:21;;;;;;;18.87;8.80;;;24.40;65.40;;;;;;10715386;33;20366;-74
2023/04/01 17:01:47;;;;;;;13.02;8.77;;;23.20;66.20;;;;;;10828788;33;20020;-73
2023/04/01 17:08:07;;;;;;;12.10;9.88;;;22.30;67.40;;;;;;10828616;33;20050;-74
2023/04/01 17:14:19;;;;;;;10.35;8.27;;;21.60;68.60;;;;;;10815122;32;20040;-73
2023/04/01 17:20:31;;;;;;;12.18;6.25;;;21.20;69.00;;;;;;10814667;33;20035;-75
2023/04/01 17:27:00;;;;;;;11.48;7.50;;;20.30;69.50;;;;;;10810668;33;20330;-75
2023/04/01 17:33:23;;;;;;;10.50;6.40;;;19.80;70.40;;;;;;10823112;33;20047;-75
2023/04/01 17:39:49;;;;;;;16.25;9.82;;;19.30;70.70;;;;;;10826605;33;20482;-75
2023/04/01 17:45:57;;;;;;;13.80;10.80;;;19.10;70.40;;;;;;10822665;32;20062;-75
2023/04/01 17:52:13;;;;;;;11.75;8.45;;;18.80;71.20;;;;;;10826528;33;20020;-73
2023/04/01 17:58:21;;;;;;;10.20;7.80;;;18.50;72.00;;;;;;10825513;32;20043;-73
2023/04/01 18:04:42;;;;;;;14.87;7.68;;;18.30;72.40;;;;;;10827232;33;20024;-73
2023/04/01 18:11:00;;;;;;;15.60;11.73;;;18.10;72.70;;;;;;10828501;33;20020;-73
2023/04/01 18:17:34;;;;;;;23.55;19.10;;;17.80;73.10;;;;;;10828245;33;20051;-73
2023/04/01 18:23:43;;;;;;;21.87;18.23;;;17.50;74.00;;;;;;10865546;32;20219;-75
2023/04/01 18:30:14;;;;;;;28.00;21.35;;;17.30;74.70;;;;;;10866563;32;20204;-73
2023/04/01 18:36:24;;;;;;;29.87;23.60;;;17.10;75.20;;;;;;10788182;32;20036;-73
2023/04/01 18:42:52;;;;;;;27.75;22.15;;;16.90;75.60;;;;;;10792098;33;20078;-73
2023/04/01 18:49:02;;;;;;;39.75;27.77;;;16.80;76.30;;;;;;10792623;32;20024;-73
2023/04/01 18:55:05;;;;;;;31.60;25.70;;;16.80;76.70;;;;;;10792491;33;20370;-74
2023/04/01 19:01:18;;;;;;;38.70;30.30;;;16.70;76.80;;;;;;10646479;33;20083;-73
2023/04/01 19:07:43;;;;;;;30.88;25.75;;;16.70;77.10;;;;;;10640808;33;20052;-74
2023/04/01 19:14:01;;;;;;;33.15;23.10;;;16.50;77.50;;;;;;10770650;33;20033;-74
2023/04/01 19:20:20;;;;;;;27.92;24.63;;;16.50;77.90;;;;;;10789898;33;20386;-74
2023/04/01 19:26:37;;;;;;;24.00;17.95;;;16.60;77.90;;;;;;10789061;33;20020;-74
2023/04/01 19:33:07;;;;;;;27.37;22.15;;;16.70;77.90;;;;;;10785277;33;20428;-74
2023/04/01 19:39:39;;;;;;;20.65;16.77;;;16.80;77.70;;;;;;10787288;33;20028;-74
2023/04/01 19:45:53;;;;;;;25.02;15.18;;;16.90;78.00;;;;;;10788646;33;20043;-74
2023/04/01 19:52:01;;;;;;;21.85;18.62;;;17.00;77.70;;;;;;10788521;33;20418;-74
2023/04/01 19:58:06;;;;;;;23.45;18.08;;;17.10;77.70;;;;;;10788227;33;20027;-74
2023/04/01 20:04:49;;;;;;;42.28;29.02;;;17.20;78.30;;;;;;10789365;33;20302;-75
2023/04/01 20:11:15;;;;;;;32.20;23.55;;;16.90;78.70;;;;;;10785839;33;20031;-75
2023/04/01 20:17:45;;;;;;;30.42;27.02;;;16.50;79.00;;;;;;10788406;33;20044;-76
2023/04/01 20:24:13;;;;;;;35.42;29.25;;;16.20;79.50;;;;;;10779691;33;20028;-76
2023/04/01 20:30:26;;;;;;;24.73;19.40;;;16.20;80.00;;;;;;10717641;33;20028;-76
2023/04/01 20:36:32;;;;;;;37.67;27.33;;;16.20;80.30;;;;;;10721577;33;20033;-76
2023/04/01 20:42:59;;;;;;;30.15;22.87;;;16.30;80.20;;;;;;10790756;32;20464;-75
2023/04/01 20:49:25;;;;;;;35.28;24.85;;;16.40;80.20;;;;;;10805218;32;20236;-75
2023/04/01 20:55:48;;;;;;;19.00;14.93;;;16.30;80.40;;;;;;10744882;32;20449;-75
2023/04/01 21:02:02;;;;;;;20.42;16.55;;;16.20;80.70;;;;;;10752445;33;20051;-73
2023/04/01 21:08:16;;;;;;;26.58;20.00;;;16.20;80.50;;;;;;10825753;33;20024;-74
2023/04/01 21:14:43;;;;;;;19.85;15.52;;;16.20;80.70;;;;;;10829634;33;20050;-74
2023/04/01 21:20:57;;;;;;;15.40;13.20;;;16.20;81.00;;;;;;10830454;33;20028;-74
2023/04/01 21:27:23;;;;;;;21.30;18.80;;;16.20;81.30;;;;;;10829261;33;20046;-74
2023/04/01 21:33:45;;;;;;;24.73;15.50;;;16.10;81.30;;;;;;10826550;32;20028;-74
2023/04/01 21:39:55;;;;;;;18.30;13.07;;;16.00;81.60;;;;;;10830223;33;20078;-74
2023/04/01 21:46:00;;;;;;;13.15;9.95;;;16.10;81.70;;;;;;10829433;33;20059;-74
2023/04/01 21:52:15;;;;;;;12.30;8.40;;;16.20;81.20;;;;;;10827470;33;20054;-76
2023/04/01 21:58:39;;;;;;;10.45;6.82;;;16.20;81.00;;;;;;10828335;33;20437;-75
2023/04/01 22:04:53;;;;;;;13.98;9.52;;;16.10;81.00;;;;;;10826393;33;20058;-75
2023/04/01 22:11:01;;;;;;;13.75;9.45;;;16.00;80.90;;;;;;10828108;33;20016;-76
2023/04/01 22:17:13;;;;;;;13.88;10.13;;;16.00;81.10;;;;;;10827878;33;20321;-74
2023/04/01 22:23:33;;;;;;;11.95;9.45;;;16.00;81.00;;;;;;10827267;32;20424;-74
2023/04/01 22:30:03;;;;;;;10.55;7.78;;;16.00;81.10;;;;;;10828264;33;20275;-74
2023/04/01 22:36:27;;;;;;;8.45;6.30;;;16.00;81.20;;;;;;10827308;33;20033;-74
2023/04/01 22:43:01;;;;;;;9.88;7.45;;;16.00;81.00;;;;;;10825693;32;20032;-74
2023/04/01 22:49:16;;;;;;;17.55;11.40;;;15.90;80.90;;;;;;10825346;32;20043;-74
2023/04/01 22:55:28;;;;;;;8.80;6.47;;;15.90;80.90;;;;;;10827339;33;20382;-73
2023/04/01 23:02:06;;;;;;;16.75;12.02;;;15.80;80.80;;;;;;10827149;33;20042;-73
2023/04/01 23:08:52;;;;;;;17.48;13.15;;;15.70;80.60;;;;;;10826343;33;20027;-74
2023/04/01 23:15:00;;;;;;;14.27;11.30;;;15.60;80.70;;;;;;10825922;33;20073;-76
2023/04/01 23:21:14;;;;;;;12.97;10.27;;;15.50;80.60;;;;;;10825372;32;20032;-76
2023/04/01 23:27:40;;;;;;;15.15;11.02;;;15.50;80.60;;;;;;10807783;33;20020;-76
2023/04/01 23:33:43;;;;;;;12.02;8.15;;;15.30;80.60;;;;;;10826030;33;20271;-75
2023/04/01 23:39:49;;;;;;;16.60;7.82;;;15.30;80.70;;;;;;10825008;33;20024;-76
2023/04/01 23:45:54;;;;;;;11.75;8.60;;;15.20;80.70;;;;;;10826085;33;20034;-76
2023/04/01 23:52:02;;;;;;;16.80;12.43;;;15.20;80.60;;;;;;10827097;27;20074;-76
2023/04/01 23:58:21;;;;;;;16.08;9.15;;;15.10;80.80;;;;;;10824193;32;20042;-75
